Time,TemperatureF,DewpointF,PressureIn,WindDirection,WindDirectionDegrees,WindSpeedMPH,WindSpeedGustMPH,Humidity,HourlyPrecipIn,Conditions,Clouds,dailyrainin,SoftwareType,DateUTC
2013-09-09 18:38:00,90.7,72.8,29.89,SSW,203,2.0,2.0,56,0.00,,,0.00,WUHU216HW,2013-09-09 23:38:00,
2013-09-09 18:39:00,90.7,72.8,29.89,SSW,203,2.0,2.0,56,0.00,,,0.00,WUHU216HW,2013-09-09 23:39:00,
2013-09-09 18:44:00,90.7,72.8,29.89,SSW,203,2.0,2.0,56,0.00,,,0.00,WUHU216HW,2013-09-09 23:44:00,
2013-09-09 19:00:00,89.5,73.8,29.90,South,180,0.0,0.0,60,0.00,,,0.00,WUHU216HW,2013-09-10 00:00:00,
2013-09-09 19:05:00,89.5,73.8,29.90,South,180,0.0,0.0,60,0.00,,,0.00,WUHU216HW,2013-09-10 00:05:00,
2013-09-09 19:30:00,86.9,72.8,29.91,SSW,203,0.4,0.4,63,0.00,,,0.00,WUHU216HW,2013-09-10 00:30:00,
2013-09-09 19:35:00,86.9,72.8,29.91,SSW,203,0.4,0.4,63,0.00,,,0.00,WUHU216HW,2013-09-10 00:35:00,
2013-09-09 19:56:00,85.1,72.6,29.92,SSW,203,0.2,0.2,66,0.00,,,0.00,WUHU216HW,2013-09-10 00:56:00,
2013-09-09 20:01:00,84.8,72.6,29.91,SSW,203,1.3,1.6,67,0.00,,,0.00,WUHU216HW,2013-09-10 01:01:00,
2013-09-09 20:06:00,84.6,72.5,29.92,SSW,203,0.7,1.6,67,0.00,,,0.00,WUHU216HW,2013-09-10 01:06:00,
2013-09-09 20:11:00,84.2,72.5,29.92,South,180,0.4,1.3,68,0.00,,,0.00,WUHU216HW,2013-09-10 01:11:00,
2013-09-09 20:16:00,83.9,72.2,29.92,SSE,158,0.0,0.9,68,0.00,,,0.00,WUHU216HW,2013-09-10 01:16:00,
2013-09-09 20:21:00,83.7,72.5,29.92,SSW,203,0.0,0.4,69,0.00,,,0.00,WUHU216HW,2013-09-10 01:21:00,
2013-09-09 20:26:00,83.5,72.3,29.92,SSW,203,0.2,0.4,69,0.00,,,0.00,WUHU216HW,2013-09-10 01:26:00,
2013-09-09 20:31:00,83.2,72.4,29.93,SSW,203,0.0,0.7,70,0.00,,,0.00,WUHU216HW,2013-09-10 01:31:00,
2013-09-09 20:36:00,83.0,72.2,29.93,SSW,203,0.0,0.7,70,0.00,,,0.00,WUHU216HW,2013-09-10 01:36:00,
2013-09-09 20:41:00,82.6,71.8,29.93,SSW,203,0.6,0.9,70,0.00,,,0.00,WUHU216HW,2013-09-10 01:41:00,
2013-09-09 20:46:00,82.4,72.1,29.93,SSW,203,0.4,0.9,71,0.00,,,0.00,WUHU216HW,2013-09-10 01:46:00,
2013-09-09 20:51:00,82.3,72.3,29.93,SSW,203,0.0,1.8,72,0.00,,,0.00,WUHU216HW,2013-09-10 01:51:00,
2013-09-09 20:56:00,82.1,72.2,29.93,SSW,203,0.0,1.8,72,0.00,,,0.00,WUHU216HW,2013-09-10 01:56:00,
2013-09-09 21:01:00,81.9,71.6,29.93,SSW,203,0.4,0.4,71,0.00,,,0.00,WUHU216HW,2013-09-10 02:01:00,
2013-09-09 21:06:00,81.7,71.4,29.93,SW,225,0.0,0.9,71,0.00,,,0.00,WUHU216HW,2013-09-10 02:06:00,
2013-09-09 21:11:00,81.5,71.6,29.94,SSW,203,0.4,0.9,72,0.00,,,0.00,WUHU216HW,2013-09-10 02:11:00,
2013-09-09 21:16:00,81.4,71.5,29.94,SSW,203,0.0,0.4,72,0.00,,,0.00,WUHU216HW,2013-09-10 02:16:00,
2013-09-09 21:21:00,81.2,71.3,29.94,SSW,203,0.0,0.4,72,0.00,,,0.00,WUHU216HW,2013-09-10 02:21:00,
2013-09-09 21:26:00,81.0,71.1,29.94,SSW,203,0.0,0.4,72,0.00,,,0.00,WUHU216HW,2013-09-10 02:26:00,
2013-09-09 21:31:00,80.8,71.4,29.94,SSW,203,0.0,0.2,73,0.00,,,0.00,WUHU216HW,2013-09-10 02:31:00,
2013-09-09 21:36:00,80.6,71.2,29.94,SSW,203,0.0,0.2,73,0.00,,,0.00,WUHU216HW,2013-09-10 02:36:00,
2013-09-09 21:41:00,80.5,71.0,29.94,SSW,203,0.2,0.2,73,0.00,,,0.00,WUHU216HW,2013-09-10 02:41:00,
2013-09-09 21:46:00,80.3,71.3,29.94,SSW,203,0.0,0.4,74,0.00,,,0.00,WUHU216HW,2013-09-10 02:46:00,
2013-09-09 21:51:00,80.1,71.1,29.94,SSE,158,0.0,0.9,74,0.00,,,0.00,WUHU216HW,2013-09-10 02:51:00,
2013-09-09 21:56:00,79.9,71.3,29.94,SSE,158,0.4,0.9,75,0.00,,,0.00,WUHU216HW,2013-09-10 02:56:00,
2013-09-09 22:01:00,79.7,71.1,29.94,SSE,158,0.0,0.4,75,0.00,,,0.00,WUHU216HW,2013-09-10 03:01:00,
2013-09-09 22:06:00,79.6,70.9,29.94,SSE,158,0.0,0.0,75,0.00,,,0.00,WUHU216HW,2013-09-10 03:06:00,
2013-09-09 22:11:00,79.4,70.7,29.95,SSE,158,0.0,0.0,75,0.00,,,0.00,WUHU216HW,2013-09-10 03:11:00,
2013-09-09 22:16:00,79.2,70.6,29.94,SSW,203,0.4,0.4,75,0.00,,,0.00,WUHU216HW,2013-09-10 03:16:00,
2013-09-09 22:21:00,78.8,70.6,29.94,SSW,203,0.0,0.4,76,0.00,,,0.00,WUHU216HW,2013-09-10 03:21:00,
2013-09-09 22:26:00,78.8,70.6,29.95,SSE,158,0.4,0.4,76,0.00,,,0.00,WUHU216HW,2013-09-10 03:26:00,
2013-09-09 22:31:00,78.5,70.3,29.95,SSW,203,0.0,0.4,76,0.00,,,0.00,WUHU216HW,2013-09-10 03:31:00,
2013-09-09 22:36:00,78.3,70.5,29.95,SSW,203,0.9,0.9,77,0.00,,,0.00,WUHU216HW,2013-09-10 03:36:00,
2013-09-09 22:41:00,78.1,70.3,29.95,ESE,113,0.0,0.9,77,0.00,,,0.00,WUHU216HW,2013-09-10 03:41:00,
2013-09-09 22:46:00,78.1,70.3,29.95,South,180,0.0,0.4,77,0.00,,,0.00,WUHU216HW,2013-09-10 03:46:00,
2013-09-09 22:51:00,77.9,70.1,29.95,South,180,0.0,0.4,77,0.00,,,0.00,WUHU216HW,2013-09-10 03:51:00,
2013-09-09 22:56:00,77.8,69.9,29.95,South,180,0.0,0.2,77,0.00,,,0.00,WUHU216HW,2013-09-10 03:56:00,
2013-09-09 23:01:00,77.8,69.9,29.95,South,180,0.0,0.0,77,0.00,,,0.00,WUHU216HW,2013-09-10 04:01:00,
2013-09-09 23:06:00,77.6,69.8,29.95,ESE,113,0.0,0.0,77,0.00,,,0.00,WUHU216HW,2013-09-10 04:06:00,
2013-09-09 23:11:00,77.6,69.8,29.95,ESE,113,0.0,0.0,77,0.00,,,0.00,WUHU216HW,2013-09-10 04:11:00,
2013-09-09 23:16:00,77.4,69.6,29.95,ESE,113,0.2,0.2,77,0.00,,,0.00,WUHU216HW,2013-09-10 04:16:00,
2013-09-09 23:21:00,77.4,69.6,29.95,SSW,203,0.4,0.4,77,0.00,,,0.00,WUHU216HW,2013-09-10 04:21:00,
2013-09-09 23:26:00,77.2,69.9,29.95,South,180,0.0,0.4,78,0.00,,,0.00,WUHU216HW,2013-09-10 04:26:00,
2013-09-09 23:31:00,77.2,69.9,29.95,SSE,158,0.0,0.4,78,0.00,,,0.00,WUHU216HW,2013-09-10 04:31:00,
2013-09-09 23:36:00,77.0,69.7,29.95,SSE,158,0.0,0.2,78,0.00,,,0.00,WUHU216HW,2013-09-10 04:36:00,
2013-09-09 23:41:00,77.0,69.7,29.95,SW,225,0.9,1.1,78,0.00,,,0.00,WUHU216HW,2013-09-10 04:41:00,
2013-09-09 23:46:00,77.2,70.2,29.95,WSW,248,0.9,1.1,79,0.00,,,0.00,WUHU216HW,2013-09-10 04:46:00,
2013-09-09 23:51:00,77.2,70.2,29.95,SW,225,0.9,0.9,79,0.00,,,0.00,WUHU216HW,2013-09-10 04:51:00,
2013-09-09 23:56:00,77.2,70.2,29.95,SSW,203,1.1,1.1,79,0.00,,,0.00,WUHU216HW,2013-09-10 04:56:00,